Time;durP1;ratioP1;P1;durP2;ratioP2;P2;SDS_P1;SDS_P2;PMS_P1;PMS_P2;Temp;Humidity;BMP_temperature;BMP_pressure;BME280_temperature;BME280_humidity;BME280_pressure;Samples;Min_cycle;Max_cycle;Signal;HPM_P1;HPM_P2
2019/06/06 00:00:39;;;;;;;6.4;5.7;;;;;;;;;;;;;
2019/06/06 00:03:04;;;;;;;8;5.7;;;;;;;;;;;;;
2019/06/06 00:05:30;;;;;;;6.3;5.4;;;;;;;;;;;;;
2019/06/06 00:07:55;;;;;;;6.8;5.6;;;;;;;;;;;;;
2019/06/06 00:10:20;;;;;;;6.7;6.1;;;;;;;;;;;;;
2019/06/06 00:12:45;;;;;;;6.8;6.1;;;;;;;;;;;;;
2019/06/06 00:15:10;;;;;;;7.7;5.9;;;;;;;;;;;;;
2019/06/06 00:17:35;;;;;;;7.7;5.9;;;;;;;;;;;;;
2019/06/06 00:20:00;;;;;;;7.1;6.4;;;;;;;;;;;;;
2019/06/06 00:22:25;;;;;;;9;6.6;;;;;;;;;;;;;
2019/06/06 00:24:51;;;;;;;8.6;6.9;;;;;;;;;;;;;
2019/06/06 00:27:16;;;;;;;7.4;6.7;;;;;;;;;;;;;
2019/06/06 00:29:41;;;;;;;7.5;6.8;;;;;;;;;;;;;
2019/06/06 00:32:06;;;;;;;7.3;6.6;;;;;;;;;;;;;
2019/06/06 00:34:31;;;;;;;8.7;6.6;;;;;;;;;;;;;
2019/06/06 00:36:57;;;;;;;8.1;7.2;;;;;;;;;;;;;
2019/06/06 00:39:22;;;;;;;7.8;6.6;;;;;;;;;;;;;
2019/06/06 00:41:49;;;;;;;7.4;6.7;;;;;;;;;;;;;
2019/06/06 00:44:14;;;;;;;6.8;6.2;;;;;;;;;;;;;
2019/06/06 00:46:41;;;;;;;9.3;7.1;;;;;;;;;;;;;
2019/06/06 00:49:06;;;;;;;7.7;7;;;;;;;;;;;;;
2019/06/06 00:51:31;;;;;;;8.2;7.2;;;;;;;;;;;;;
2019/06/06 00:53:56;;;;;;;8;7.2;;;;;;;;;;;;;
2019/06/06 00:56:21;;;;;;;9.1;6.9;;;;;;;;;;;;;
2019/06/06 00:58:46;;;;;;;8;6.9;;;;;;;;;;;;;
2019/06/06 01:01:11;;;;;;;8.2;7.2;;;;;;;;;;;;;
2019/06/06 01:03:37;;;;;;;9.4;6.5;;;;;;;;;;;;;
2019/06/06 01:06:02;;;;;;;8.9;7;;;;;;;;;;;;;
2019/06/06 01:08:30;;;;;;;7.6;6.6;;;;;;;;;;;;;
2019/06/06 01:10:52;;;;;;;6.9;6.2;;;;;;;;;;;;;
2019/06/06 01:13:17;;;;;;;6.9;6.1;;;;;;;;;;;;;
2019/06/06 01:15:42;;;;;;;7.7;6.8;;;;;;;;;;;;;
2019/06/06 01:18:08;;;;;;;7.4;6.7;;;;;;;;;;;;;
2019/06/06 01:20:33;;;;;;;9.3;6.6;;;;;;;;;;;;;
2019/06/06 01:22:59;;;;;;;7.9;7.2;;;;;;;;;;;;;
2019/06/06 01:25:25;;;;;;;8.8;7.1;;;;;;;;;;;;;
2019/06/06 01:27:50;;;;;;;7.8;7;;;;;;;;;;;;;
2019/06/06 01:30:15;;;;;;;8;7.2;;;;;;;;;;;;;
2019/06/06 01:32:40;;;;;;;8;7;;;;;;;;;;;;;
2019/06/06 01:35:05;;;;;;;7.8;6.8;;;;;;;;;;;;;
2019/06/06 01:37:30;;;;;;;7.3;6.5;;;;;;;;;;;;;
2019/06/06 01:40:02;;;;;;;7.3;6.6;;;;;;;;;;;;;
2019/06/06 01:42:29;;;;;;;7.4;6.5;;;;;;;;;;;;;
2019/06/06 01:44:50;;;;;;;7;6.4;;;;;;;;;;;;;
2019/06/06 01:47:15;;;;;;;7.8;6.2;;;;;;;;;;;;;
2019/06/06 01:49:43;;;;;;;6.6;6;;;;;;;;;;;;;
2019/06/06 01:52:08;;;;;;;8.6;5.7;;;;;;;;;;;;;
2019/06/06 01:54:33;;;;;;;7.7;5.8;;;;;;;;;;;;;
2019/06/06 01:57:02;;;;;;;7.2;5.2;;;;;;;;;;;;;
2019/06/06 01:59:27;;;;;;;9.5;5.2;;;;;;;;;;;;;
2019/06/06 02:01:52;;;;;;;8.2;5;;;;;;;;;;;;;
2019/06/06 02:04:17;;;;;;;8.9;5.1;;;;;;;;;;;;;
2019/06/06 02:06:51;;;;;;;5.5;4.9;;;;;;;;;;;;;
2019/06/06 02:09:25;;;;;;;8.2;5.1;;;;;;;;;;;;;
2019/06/06 02:11:55;;;;;;;9.2;5;;;;;;;;;;;;;
2019/06/06 02:14:20;;;;;;;11.9;5.7;;;;;;;;;;;;;
2019/06/06 02:16:45;;;;;;;11.5;5.4;;;;;;;;;;;;;
2019/06/06 02:19:10;;;;;;;11.6;5.4;;;;;;;;;;;;;
2019/06/06 02:21:35;;;;;;;10.2;4.9;;;;;;;;;;;;;
2019/06/06 02:24:00;;;;;;;7.7;5.3;;;;;;;;;;;;;
2019/06/06 02:26:25;;;;;;;6.2;4.8;;;;;;;;;;;;;
2019/06/06 02:28:51;;;;;;;6.5;4.9;;;;;;;;;;;;;
2019/06/06 02:32:34;;;;;;;7.8;5.2;;;;;;;19.07;64.58301;951.3486;;;;
2019/06/06 02:34:59;;;;;;;6.7;4.9;;;;;;;18.98;65.22949;951.3795;;;;
2019/06/06 02:37:25;;;;;;;7.5;4.8;;;;;;;18.93;65.42188;951.4216;;;;
2019/06/06 02:39:50;;;;;;;6.5;5.2;;;;;;;18.82;66.12305;951.3692;;;;
2019/06/06 02:42:16;;;;;;;5.2;4.7;;;;;;;18.65;67.46094;951.5759;;;;
2019/06/06 02:44:41;;;;;;;6.5;4.6;;;;;;;18.65;67.27344;951.4903;;;;
2019/06/06 02:47:07;;;;;;;6.2;5;;;;;;;18.59;67.4873;951.537;;;;
2019/06/06 02:49:32;;;;;;;7.1;4.8;;;;;;;18.4;68.92676;951.5402;;;;
2019/06/06 02:51:57;;;;;;;6.4;4.6;;;;;;;18.44;68.42871;951.5513;;;;
2019/06/06 02:54:22;;;;;;;5.7;4.8;;;;;;;18.35;68.95508;951.6766;;;;
2019/06/06 02:56:48;;;;;;;6.5;4.8;;;;;;;18.24;69.7002;951.7457;;;;
2019/06/06 02:59:13;;;;;;;7.6;4.7;;;;;;;18.12;70.78516;951.7587;;;;
2019/06/06 03:01:38;;;;;;;6.8;4.3;;;;;;;18.16;70.45117;951.8179;;;;
2019/06/06 03:04:26;;;;;;;6.4;4.6;;;;;;;18.08;71.38867;951.8822;;;;
2019/06/06 03:07:01;;;;;;;5.7;4.6;;;;;;;18.03;71.60449;952.0004;;;;
2019/06/06 03:09:27;;;;;;;7.8;4.3;;;;;;;18.03;71.6748;952.0223;;;;
2019/06/06 03:11:51;;;;;;;5.6;4.2;;;;;;;17.96;72.33203;952.1489;;;;
2019/06/06 03:14:17;;;;;;;5.4;4.3;;;;;;;17.78;73.46484;952.2227;;;;
2019/06/06 03:16:42;;;;;;;7.7;4.3;;;;;;;17.78;73.35742;952.2925;;;;
2019/06/06 03:19:09;;;;;;;6.1;4.2;;;;;;;17.76;73.4502;952.3855;;;;
2019/06/06 03:21:34;;;;;;;5.4;4.6;;;;;;;17.72;73.75879;952.3789;;;;
2019/06/06 03:24:00;;;;;;;6.1;4;;;;;;;17.79;73.44238;952.4208;;;;
2019/06/06 03:26:25;;;;;;;5.4;4.1;;;;;;;17.58;74.68457;952.3692;;;;
2019/06/06 03:28:50;;;;;;;5.9;4.4;;;;;;;17.6;74.71094;952.4614;;;;
2019/06/06 03:31:15;;;;;;;5.2;4.3;;;;;;;17.54;74.90137;952.4692;;;;
2019/06/06 03:33:40;;;;;;;4.7;4.3;;;;;;;17.49;75.24414;952.4681;;;;
2019/06/06 03:36:05;;;;;;;5.2;4;;;;;;;17.43;75.59863;952.5195;;;;
2019/06/06 03:38:33;;;;;;;6.9;4.5;;;;;;;17.38;76.12793;952.5402;;;;
2019/06/06 03:40:58;;;;;;;5.3;4.6;;;;;;;17.33;75.95605;952.5469;;;;
2019/06/06 03:43:24;;;;;;;8;4.6;;;;;;;17.36;76.01953;952.659;;;;
2019/06/06 03:45:49;;;;;;;8;4.6;;;;;;;17.44;75.62207;952.614;;;;
2019/06/06 03:48:17;;;;;;;6.1;4.9;;;;;;;17.35;76.00684;952.6609;;;;
2019/06/06 03:50:42;;;;;;;6.2;5.2;;;;;;;17.39;76.25879;952.7202;;;;
2019/06/06 03:53:07;;;;;;;6.1;5.1;;;;;;;17.41;76.39063;952.7687;;;;
2019/06/06 03:55:34;;;;;;;5.5;4.6;;;;;;;17.45;76.51563;952.7244;;;;
2019/06/06 03:57:59;;;;;;;6.3;4.9;;;;;;;17.59;75.92969;952.7731;;;;
2019/06/06 04:02:26;;;;;;;5.3;4.8;;;;;;;17.65;76.49316;952.8625;;;;
2019/06/06 04:04:51;;;;;;;5.9;4.9;;;;;;;17.77;76.18457;952.9059;;;;
2019/06/06 04:07:17;;;;;;;6.5;4.9;;;;;;;17.75;76.50879;953.0215;;;;
2019/06/06 04:09:42;;;;;;;7.7;4.6;;;;;;;17.74;76.75293;953.0538;;;;
2019/06/06 04:12:07;;;;;;;6.4;4.5;;;;;;;17.86;76.85547;953.0619;;;;
2019/06/06 04:14:32;;;;;;;7.3;5.2;;;;;;;17.82;77.02539;953.202;;;;
2019/06/06 04:16:57;;;;;;;9;5;;;;;;;17.7;77.67383;953.2051;;;;
2019/06/06 04:19:22;;;;;;;7;4.8;;;;;;;17.75;77.47168;953.2109;;;;
2019/06/06 04:21:47;;;;;;;8.2;5.1;;;;;;;17.78;77.53418;953.1556;;;;
2019/06/06 04:24:12;;;;;;;8.5;5.2;;;;;;;17.85;77.37207;953.1705;;;;
2019/06/06 04:26:37;;;;;;;8;5.1;;;;;;;17.83;77.74316;953.3251;;;;
2019/06/06 04:29:03;;;;;;;7.5;4.9;;;;;;;17.83;77.64844;953.36;;;;
2019/06/06 04:31:27;;;;;;;5.9;5;;;;;;;17.75;78.05664;953.384;;;;
2019/06/06 04:33:54;;;;;;;6.7;4.7;;;;;;;17.83;78.00098;953.4028;;;;
2019/06/06 04:36:20;;;;;;;6.7;4.6;;;;;;;17.88;78.1748;953.4338;;;;
2019/06/06 04:38:45;;;;;;;6.2;5;;;;;;;17.72;78.47461;953.4867;;;;
2019/06/06 04:41:10;;;;;;;7;5;;;;;;;17.87;77.74902;953.462;;;;
2019/06/06 04:43:35;;;;;;;5.8;4.9;;;;;;;17.89;77.47363;953.4537;;;;
2019/06/06 04:46:00;;;;;;;6.6;5;;;;;;;17.99;77.67773;953.5309;;;;
2019/06/06 04:48:26;;;;;;;7.3;5.2;;;;;;;18.2;76.50391;953.5347;;;;
2019/06/06 04:50:51;;;;;;;7.2;5.1;;;;;;;17.95;78.05664;953.5844;;;;
2019/06/06 04:53:35;;;;;;;6.7;5;;;;;;;17.95;77.34277;953.6142;;;;
2019/06/06 04:56:00;;;;;;;6.6;4.8;;;;;;;17.81;78.60742;953.7158;;;;
2019/06/06 04:58:25;;;;;;;8.6;5;;;;;;;18.02;77.50586;953.7118;;;;
2019/06/06 05:00:50;;;;;;;7.1;4.7;;;;;;;17.88;78.84375;953.6758;;;;
2019/06/06 05:03:15;;;;;;;6.9;4.8;;;;;;;17.95;78.61035;953.6609;;;;
2019/06/06 05:05:42;;;;;;;5.9;4.8;;;;;;;18.13;77.00977;953.7388;;;;
2019/06/06 05:08:07;;;;;;;5.5;4.2;;;;;;;18.28;76.48242;953.7603;;;;
2019/06/06 05:10:32;;;;;;;6.2;4.9;;;;;;;18.15;76.70801;953.87;;;;
2019/06/06 05:12:58;;;;;;;6.4;4.9;;;;;;;18.29;76.36816;953.9059;;;;
2019/06/06 05:15:25;;;;;;;8.5;5.1;;;;;;;18.07;76.53906;954.0288;;;;
2019/06/06 05:17:54;;;;;;;7.5;4.5;;;;;;;18.32;75.49219;954.1473;;;;
2019/06/06 05:20:21;;;;;;;6;4.4;;;;;;;18.42;74.41797;954.1758;;;;
2019/06/06 05:22:48;;;;;;;6.4;4.9;;;;;;;18.33;76.19824;954.2709;;;;
2019/06/06 05:25:13;;;;;;;6.1;4.4;;;;;;;18.47;75.16699;954.1937;;;;
2019/06/06 05:27:42;;;;;;;7.1;4.4;;;;;;;18.7;74.21777;954.1603;;;;
2019/06/06 05:30:07;;;;;;;8.7;5;;;;;;;18.48;75.39063;954.2225;;;;
2019/06/06 05:32:35;;;;;;;6.6;4.5;;;;;;;18.62;74.08691;954.2191;;;;
2019/06/06 05:35:00;;;;;;;6.7;4.5;;;;;;;18.5;75.04297;954.2802;;;;
2019/06/06 05:37:27;;;;;;;7.1;4.6;;;;;;;18.35;75.09863;954.2855;;;;
2019/06/06 05:39:57;;;;;;;8.6;4.6;;;;;;;18.26;75.78809;954.3844;;;;
2019/06/06 05:42:21;;;;;;;7.5;4.8;;;;;;;18.44;76.80566;954.4055;;;;
2019/06/06 05:44:48;;;;;;;8.2;5.2;;;;;;;18.46;74.98828;954.4203;;;;
2019/06/06 05:47:14;;;;;;;9.1;5;;;;;;;18.68;73.69727;954.3836;;;;
2019/06/06 05:49:39;;;;;;;6.3;4.7;;;;;;;18.49;75.48438;954.356;;;;
2019/06/06 05:52:05;;;;;;;7.4;5;;;;;;;18.41;75.55469;954.3451;;;;
2019/06/06 05:54:30;;;;;;;7.1;5.1;;;;;;;18.23;76.66406;954.4056;;;;
2019/06/06 05:56:55;;;;;;;9.2;5.2;;;;;;;18.32;76.25586;954.4323;;;;
2019/06/06 05:59:21;;;;;;;8;5.2;;;;;;;18.73;75.18652;954.4073;;;;
2019/06/06 06:01:46;;;;;;;10.1;4.7;;;;;;;18.74;75.49512;954.5086;;;;
2019/06/06 06:04:13;;;;;;;8.4;5.4;;;;;;;18.74;75.63672;954.5864;;;;
2019/06/06 06:06:39;;;;;;;7.4;5.1;;;;;;;18.9;75.08594;954.5897;;;;
2019/06/06 06:09:04;;;;;;;5.6;5.1;;;;;;;18.76;76.21387;954.658;;;;
2019/06/06 06:11:29;;;;;;;8.6;5.5;;;;;;;18.81;75.24609;954.681;;;;
2019/06/06 06:13:54;;;;;;;8.9;5.1;;;;;;;19.08;75.31641;954.7142;;;;
2019/06/06 06:16:19;;;;;;;7.2;5.1;;;;;;;18.81;75.99805;954.707;;;;
2019/06/06 06:18:44;;;;;;;5.8;5.1;;;;;;;18.8;76.57422;954.7159;;;;
2019/06/06 06:21:09;;;;;;;6.9;5.1;;;;;;;18.91;74.96973;954.6914;;;;
2019/06/06 06:23:34;;;;;;;5.7;4.7;;;;;;;19.14;73.77344;954.787;;;;
2019/06/06 06:25:59;;;;;;;5.9;5.3;;;;;;;19.12;74.0752;954.8681;;;;
2019/06/06 06:28:24;;;;;;;5.8;5.2;;;;;;;18.95;73.29492;954.8932;;;;
2019/06/06 06:30:50;;;;;;;7.8;5.5;;;;;;;18.85;73.18359;954.8998;;;;
2019/06/06 06:33:15;;;;;;;9.1;5.4;;;;;;;19.27;72.6543;955.0103;;;;
2019/06/06 06:35:40;;;;;;;8.9;5.2;;;;;;;19.37;71.59863;955.0552;;;;
2019/06/06 06:38:05;;;;;;;7.1;5;;;;;;;19.48;71.76953;955.0442;;;;
2019/06/06 06:40:30;;;;;;;6;4.6;;;;;;;19.68;71.67383;955.0617;;;;
2019/06/06 06:42:55;;;;;;;5.9;4.4;;;;;;;19.61;69.35254;955.1329;;;;
2019/06/06 06:45:20;;;;;;;6.7;4.4;;;;;;;19.09;70.72852;955.1153;;;;
2019/06/06 06:47:58;;;;;;;10.1;4.8;;;;;;;19.01;71.63379;955.1486;;;;
2019/06/06 06:50:24;;;;;;;8.3;4.6;;;;;;;18.85;71.88965;955.198;;;;
2019/06/06 06:52:49;;;;;;;11.5;5.1;;;;;;;18.84;73.31152;955.1862;;;;
2019/06/06 06:55:16;;;;;;;7.9;5.1;;;;;;;19.33;70.65039;955.1867;;;;
2019/06/06 06:57:42;;;;;;;5.5;4.4;;;;;;;19.7;68.98828;955.1931;;;;
2019/06/06 07:00:06;;;;;;;6.2;4.4;;;;;;;19.74;69.38379;955.2394;;;;
2019/06/06 07:02:32;;;;;;;6;4.5;;;;;;;19.45;69.49121;955.2567;;;;
2019/06/06 07:04:57;;;;;;;5.2;4;;;;;;;19.26;68.34473;955.2709;;;;
2019/06/06 07:07:22;;;;;;;6.3;4.2;;;;;;;19.19;69.93359;955.2551;;;;
2019/06/06 07:09:47;;;;;;;5.7;4.1;;;;;;;19.29;68.40723;955.2623;;;;
2019/06/06 07:12:16;;;;;;;6.5;4.3;;;;;;;19.71;68.37793;955.2949;;;;
2019/06/06 07:14:52;;;;;;;6.6;4.5;;;;;;;19.56;68.5791;955.3731;;;;
2019/06/06 07:17:22;;;;;;;7.6;4.5;;;;;;;19.5;70.44336;955.3175;;;;
2019/06/06 07:19:47;;;;;;;9.3;4.4;;;;;;;19.95;67.48438;955.389;;;;
2019/06/06 07:22:12;;;;;;;10.1;4.8;;;;;;;19.72;67.38965;955.3197;;;;
2019/06/06 07:24:37;;;;;;;9.7;4.4;;;;;;;19.97;66.84863;955.3869;;;;
2019/06/06 07:27:17;;;;;;;7.4;4.5;;;;;;;19.8;68.81543;955.3862;;;;
2019/06/06 07:29:43;;;;;;;6.6;4;;;;;;;20.25;65.13574;955.3258;;;;
2019/06/06 07:32:05;;;;;;;7.1;3.9;;;;;;;20.52;64.33594;955.3423;;;;
2019/06/06 07:34:31;;;;;;;4.8;3.8;;;;;;;20.51;65.19629;955.4567;;;;
2019/06/06 07:37:03;;;;;;;6.8;4.1;;;;;;;20.04;66.68457;955.47;;;;
2019/06/06 07:39:28;;;;;;;8.1;4.4;;;;;;;19.84;65.91113;955.5233;;;;
2019/06/06 07:42:02;;;;;;;8.5;4;;;;;;;19.58;68.41797;955.5178;;;;
2019/06/06 07:44:39;;;;;;;8.8;3.8;;;;;;;19.71;68.84961;955.5466;;;;
2019/06/06 07:47:04;;;;;;;5;3.4;;;;;;;20.08;65.49902;955.5474;;;;
2019/06/06 07:49:35;;;;;;;3.6;3.2;;;;;;;20.21;67.11133;955.5355;;;;
2019/06/06 07:52:00;;;;;;;6.9;3.4;;;;;;;19.9;66.06152;955.553;;;;
2019/06/06 07:54:25;;;;;;;5.2;3.5;;;;;;;19.79;66.37598;955.673;;;;
2019/06/06 07:56:53;;;;;;;4.5;3.4;;;;;;;19.43;65.64941;955.5403;;;;
2019/06/06 07:59:18;;;;;;;5.7;3.4;;;;;;;19.37;66.05371;955.5535;;;;
2019/06/06 08:01:43;;;;;;;6.9;3.4;;;;;;;19.01;67.05762;955.6842;;;;
2019/06/06 08:04:13;;;;;;;6.9;3.5;;;;;;;19.27;66.15625;955.6771;;;;
2019/06/06 08:06:38;;;;;;;3.6;3;;;;;;;19.59;66.85156;955.7073;;;;
2019/06/06 08:09:24;;;;;;;4.3;3.5;;;;;;;20.23;64.23535;955.6153;;;;
2019/06/06 08:12:06;;;;;;;6.6;3.4;;;;;;;19.37;67.19531;955.6442;;;;
2019/06/06 08:14:31;;;;;;;5.9;3.7;;;;;;;19.88;65.69336;955.6761;;;;
2019/06/06 08:16:56;;;;;;;7.2;3.6;;;;;;;20.22;63.2666;955.7292;;;;
2019/06/06 08:19:25;;;;;;;6.4;3.3;;;;;;;20.7;61.78809;955.7991;;;;
2019/06/06 08:21:50;;;;;;;5.5;3.4;;;;;;;20.11;65.35059;955.7845;;;;
2019/06/06 08:24:15;;;;;;;4.3;3.1;;;;;;;20.58;63.94336;955.8088;;;;
2019/06/06 08:26:40;;;;;;;5.7;3.3;;;;;;;19.89;64.83594;955.8477;;;;
2019/06/06 08:29:06;;;;;;;4.6;3.1;;;;;;;20.68;61.78613;955.8028;;;;
2019/06/06 08:31:31;;;;;;;4.5;3.3;;;;;;;20;62.36328;955.8225;;;;
2019/06/06 08:33:56;;;;;;;6;3.5;;;;;;;19.71;64.60742;955.8063;;;;
2019/06/06 08:36:21;;;;;;;5.3;3.5;;;;;;;19.49;64.62207;955.8689;;;;
2019/06/06 08:38:47;;;;;;;5.6;3.4;;;;;;;19.76;65.16895;955.8502;;;;
2019/06/06 08:41:12;;;;;;;6;3.5;;;;;;;20.31;61.76855;955.8894;;;;
2019/06/06 08:43:37;;;;;;;5.7;3.3;;;;;;;20.48;63.72852;955.8109;;;;
2019/06/06 08:46:02;;;;;;;5;3.3;;;;;;;20.65;61.82813;955.8244;;;;
2019/06/06 08:48:28;;;;;;;6.7;3.3;;;;;;;20.69;60.93555;955.9135;;;;
2019/06/06 08:50:53;;;;;;;4.6;3.2;;;;;;;19.98;63.0791;955.895;;;;
2019/06/06 08:53:20;;;;;;;5;3.1;;;;;;;19.85;63.45996;955.9624;;;;
2019/06/06 08:55:45;;;;;;;4;3.1;;;;;;;20.65;60.29395;955.9205;;;;
2019/06/06 08:58:11;;;;;;;5.4;3.3;;;;;;;20.24;59.94238;955.9858;;;;
2019/06/06 09:00:35;;;;;;;4.4;2.9;;;;;;;20.5;59.50684;956.0078;;;;
2019/06/06 09:03:00;;;;;;;4.7;3;;;;;;;20.35;62.1875;956.1215;;;;
2019/06/06 09:05:25;;;;;;;3.8;3;;;;;;;19.95;63.09766;956.1085;;;;
2019/06/06 09:07:51;;;;;;;8.3;3.5;;;;;;;19.59;64.71875;956.0916;;;;
2019/06/06 09:10:16;;;;;;;8.3;3.3;;;;;;;19.86;64.09961;956.147;;;;
2019/06/06 09:12:41;;;;;;;4.8;3.2;;;;;;;19.63;65.82129;956.2122;;;;
2019/06/06 09:15:06;;;;;;;7.3;3.5;;;;;;;19.1;66.43555;956.2336;;;;
2019/06/06 09:17:34;;;;;;;6.6;3;;;;;;;19.21;66.53418;956.2736;;;;
2019/06/06 09:19:58;;;;;;;4.3;3.1;;;;;;;20.08;64.28418;956.2969;;;;
2019/06/06 09:22:24;;;;;;;4.8;3.4;;;;;;;19.5;64.54199;956.3169;;;;
2019/06/06 09:24:50;;;;;;;3.6;3.2;;;;;;;19.91;63.45898;956.3337;;;;
2019/06/06 09:27:15;;;;;;;4.9;3.5;;;;;;;19.65;63.83301;956.4164;;;;
2019/06/06 09:29:41;;;;;;;5.9;3.6;;;;;;;19.48;66.21094;956.3801;;;;
2019/06/06 09:32:08;;;;;;;5;3.5;;;;;;;20.13;62.33398;956.4447;;;;
2019/06/06 09:34:33;;;;;;;5.7;3.7;;;;;;;19.48;62.46582;956.2894;;;;
2019/06/06 09:36:58;;;;;;;8.2;4.2;;;;;;;20.22;62.29883;956.2399;;;;
2019/06/06 09:39:23;;;;;;;5.4;3.3;;;;;;;20.6;60.79395;956.2967;;;;
2019/06/06 09:41:49;;;;;;;3.4;2.9;;;;;;;21.13;59.10547;956.1926;;;;
2019/06/06 09:44:28;;;;;;;7.5;3.3;;;;;;;20.12;61.19922;956.2341;;;;
2019/06/06 09:46:59;;;;;;;4.2;2.9;;;;;;;20.14;62.13281;956.3136;;;;
2019/06/06 09:49:30;;;;;;;7.4;3.3;;;;;;;20.27;61.69238;956.233;;;;
2019/06/06 09:51:55;;;;;;;5.4;2.9;;;;;;;21.53;59.69043;956.2484;;;;
2019/06/06 09:54:20;;;;;;;5.3;2.8;;;;;;;21.89;56.49512;956.2611;;;;
2019/06/06 09:56:47;;;;;;;6.2;3.4;;;;;;;21.57;55.46094;956.2594;;;;
2019/06/06 09:59:13;;;;;;;3.8;3.1;;;;;;;21.66;56.39453;956.2932;;;;
2019/06/06 10:01:37;;;;;;;3.4;3;;;;;;;21.88;54.50488;956.2454;;;;
2019/06/06 10:04:06;;;;;;;3.4;2.9;;;;;;;21.23;56.4707;956.4556;;;;
2019/06/06 10:06:31;;;;;;;3.5;3.2;;;;;;;21.94;53.69531;956.2186;;;;
2019/06/06 10:08:56;;;;;;;3.6;2.9;;;;;;;21.03;57.17676;956.3521;;;;
2019/06/06 10:11:23;;;;;;;4.4;3;;;;;;;22.04;53.62305;956.3644;;;;
2019/06/06 10:13:50;;;;;;;6.3;3;;;;;;;20.83;57.71777;956.4048;;;;
2019/06/06 10:16:15;;;;;;;3.8;2.8;;;;;;;20.2;60.10156;956.3954;;;;
2019/06/06 10:18:41;;;;;;;5;2.7;;;;;;;20.06;61.17969;956.4071;;;;
2019/06/06 10:21:05;;;;;;;4.6;2.4;;;;;;;20.67;59.35059;956.472;;;;
2019/06/06 10:23:32;;;;;;;4.6;2.5;;;;;;;20.32;62.40723;956.4811;;;;
2019/06/06 10:25:57;;;;;;;5.3;2.4;;;;;;;20.2;61.19922;956.4514;;;;
2019/06/06 10:30:29;;;;;;;5.5;2.8;;;;;;;20.15;60.28418;956.4803;;;;
2019/06/06 10:32:54;;;;;;;5.7;2.7;;;;;;;19.56;62.12402;956.5114;;;;
2019/06/06 10:35:22;;;;;;;3.4;2.6;;;;;;;20.03;62.5791;956.5206;;;;
2019/06/06 10:37:50;;;;;;;4.4;2.6;;;;;;;20.84;57.93359;956.4583;;;;
2019/06/06 10:40:21;;;;;;;4.7;2.6;;;;;;;20.68;59.33008;956.574;;;;
2019/06/06 10:42:48;;;;;;;4.4;2.8;;;;;;;20.84;58.26465;956.6105;;;;
2019/06/06 10:45:12;;;;;;;5.6;2.7;;;;;;;20.15;62.41895;956.6154;;;;
2019/06/06 10:47:42;;;;;;;3.4;2.8;;;;;;;20.83;57.71875;956.6638;;;;
2019/06/06 10:50:07;;;;;;;3.7;2.6;;;;;;;20.55;59.39355;956.6729;;;;
2019/06/06 10:52:42;;;;;;;4.5;3;;;;;;;19.57;60.87598;956.7611;;;;
2019/06/06 10:55:08;;;;;;;2.7;2.5;;;;;;;19.93;61.52637;956.7473;;;;
2019/06/06 10:57:33;;;;;;;3.7;2.7;;;;;;;19.1;61.91797;956.7642;;;;
2019/06/06 10:59:57;;;;;;;3.5;2.7;;;;;;;19.13;62.62793;956.778;;;;
2019/06/06 11:02:24;;;;;;;7.1;3.2;;;;;;;19.06;61.80566;956.8915;;;;
2019/06/06 11:04:48;;;;;;;4.8;2.9;;;;;;;19;63.65625;956.9005;;;;
2019/06/06 11:07:13;;;;;;;3.4;2.6;;;;;;;19.22;62.11133;956.8425;;;;
2019/06/06 11:09:41;;;;;;;6.2;3.1;;;;;;;18.94;63.75391;956.8353;;;;
2019/06/06 11:12:07;;;;;;;4.2;2.5;;;;;;;18.82;65.14746;956.8013;;;;
2019/06/06 11:14:32;;;;;;;6.1;2.6;;;;;;;19.38;62.4873;956.8058;;;;
2019/06/06 11:16:57;;;;;;;5.5;2.7;;;;;;;19.12;62.57813;956.8137;;;;
2019/06/06 11:19:24;;;;;;;4.9;2.6;;;;;;;18.94;63.77734;956.7614;;;;
2019/06/06 11:21:49;;;;;;;5.5;2.5;;;;;;;18.85;64.29297;956.8615;;;;
2019/06/06 11:24:14;;;;;;;7.5;2.8;;;;;;;18.29;65.1748;956.8593;;;;
2019/06/06 11:26:40;;;;;;;9.1;2.9;;;;;;;18.62;66.49219;956.9031;;;;
2019/06/06 11:29:05;;;;;;;7.3;2.9;;;;;;;18.31;65.66992;956.9387;;;;
2019/06/06 11:31:31;;;;;;;3.7;2.7;;;;;;;18.17;65.32129;956.9841;;;;
2019/06/06 11:33:55;;;;;;;5.5;2.9;;;;;;;18.32;64.82617;956.9026;;;;
2019/06/06 11:36:25;;;;;;;4.5;2.4;;;;;;;18.69;62.81152;956.8546;;;;
2019/06/06 11:38:50;;;;;;;6.5;2.8;;;;;;;18.31;65.76465;956.8599;;;;
2019/06/06 11:41:16;;;;;;;3.9;2.6;;;;;;;18.44;64.57324;956.8684;;;;
2019/06/06 11:43:41;;;;;;;3.3;2.6;;;;;;;18.73;62.95801;956.8923;;;;
2019/06/06 11:46:07;;;;;;;4.2;2.4;;;;;;;18.8;63.93359;956.9031;;;;
2019/06/06 11:48:31;;;;;;;7.1;2.9;;;;;;;19.16;62.22168;957.0237;;;;
2019/06/06 11:51:04;;;;;;;4;2.5;;;;;;;18.96;62.42578;957.0278;;;;
2019/06/06 11:53:30;;;;;;;2.9;2.4;;;;;;;18.95;62.08496;957.0848;;;;
2019/06/06 11:55:55;;;;;;;3.2;2.3;;;;;;;19.1;62.71875;957.0586;;;;
2019/06/06 11:58:20;;;;;;;5.7;2.6;;;;;;;19.08;63.04395;957.0488;;;;
2019/06/06 12:00:45;;;;;;;5.7;2.6;;;;;;;18.45;64.69238;957.0527;;;;
2019/06/06 12:03:10;;;;;;;5.7;2.4;;;;;;;18.94;63.2832;957.0078;;;;
2019/06/06 12:05:37;;;;;;;5.2;2.3;;;;;;;18.91;63.9375;957.0564;;;;
2019/06/06 12:08:02;;;;;;;6.6;2.5;;;;;;;18.68;65.00879;957.1107;;;;
2019/06/06 12:10:27;;;;;;;4.4;2.7;;;;;;;18.5;64.6543;957.1439;;;;
2019/06/06 12:12:55;;;;;;;6.4;2.5;;;;;;;18.44;65.0332;957.1524;;;;
2019/06/06 12:15:27;;;;;;;2.8;2.5;;;;;;;18.79;62.17969;957.2114;;;;
2019/06/06 12:17:54;;;;;;;7.6;2.7;;;;;;;18.59;62.83301;957.2742;;;;
2019/06/06 12:20:19;;;;;;;4.4;2.7;;;;;;;18.15;64.53125;957.2195;;;;
2019/06/06 12:22:44;;;;;;;5.7;2.9;;;;;;;17.98;65.63477;957.3297;;;;
2019/06/06 12:25:09;;;;;;;6.1;3;;;;;;;18.02;65.82813;957.2765;;;;
2019/06/06 12:27:35;;;;;;;4.8;2.6;;;;;;;18.04;64.72754;957.2433;;;;
2019/06/06 12:30:13;;;;;;;6.2;2.9;;;;;;;17.94;65.66211;957.2195;;;;
2019/06/06 12:32:39;;;;;;;5.2;2.5;;;;;;;18;65.76563;957.2109;;;;
2019/06/06 12:35:04;;;;;;;3.3;2.4;;;;;;;18.28;64.78613;957.2271;;;;
2019/06/06 12:37:30;;;;;;;8.1;3;;;;;;;18.18;64.58398;957.2667;;;;
2019/06/06 12:39:56;;;;;;;4.2;2.7;;;;;;;18.07;64.8252;957.2313;;;;
2019/06/06 12:42:24;;;;;;;4.6;2.8;;;;;;;18.05;64.48145;957.2253;;;;
2019/06/06 12:44:49;;;;;;;4;3.1;;;;;;;17.79;65.53516;957.2007;;;;
2019/06/06 12:47:15;;;;;;;5.6;3;;;;;;;17.93;64.65137;957.2422;;;;
2019/06/06 12:49:54;;;;;;;4.8;2.5;;;;;;;18.08;64.83789;957.1524;;;;
2019/06/06 12:52:33;;;;;;;4.1;2.6;;;;;;;17.67;67.1582;957.1102;;;;
2019/06/06 12:54:58;;;;;;;4.2;2.7;;;;;;;18.05;64.57617;957.0997;;;;
2019/06/06 12:57:24;;;;;;;3.1;2.5;;;;;;;17.86;64.62891;957.0748;;;;
2019/06/06 12:59:49;;;;;;;6.1;2.7;;;;;;;17.93;64.72266;957.052;;;;
2019/06/06 13:02:14;;;;;;;4.5;3;;;;;;;18.1;63.6084;957.0454;;;;
2019/06/06 13:04:39;;;;;;;4;2.6;;;;;;;18.11;65.22949;957.0834;;;;
2019/06/06 13:07:05;;;;;;;4.2;2.7;;;;;;;18.34;62.64453;957.1287;;;;
2019/06/06 13:09:38;;;;;;;6.7;2.5;;;;;;;18.3;62.35742;957.1561;;;;
2019/06/06 13:12:06;;;;;;;5.2;2.4;;;;;;;18.24;62.2666;957.1727;;;;
2019/06/06 13:14:30;;;;;;;5.6;2.2;;;;;;;18.41;62.88965;957.1786;;;;
2019/06/06 13:16:55;;;;;;;5.1;2.2;;;;;;;18.31;62.02832;957.1589;;;;
2019/06/06 13:19:21;;;;;;;5.8;2.1;;;;;;;18.12;62.36621;957.1122;;;;
2019/06/06 13:22:12;;;;;;;7.8;3;;;;;;;17.62;64.67676;957.2239;;;;
2019/06/06 13:24:37;;;;;;;6.7;2.3;;;;;;;17.56;64.05957;957.2452;;;;
2019/06/06 13:27:21;;;;;;;3.6;2.2;;;;;;;17.28;64.59082;957.1935;;;;
2019/06/06 13:29:52;;;;;;;2.7;2;;;;;;;17.72;62.61523;957.1285;;;;
2019/06/06 13:32:17;;;;;;;5.7;2.1;;;;;;;17.86;61.77734;957.1873;;;;
2019/06/06 13:34:42;;;;;;;3.8;2;;;;;;;18.07;61.51465;957.2092;;;;
2019/06/06 13:37:07;;;;;;;5;2;;;;;;;18.42;61.23535;957.1856;;;;
2019/06/06 13:39:32;;;;;;;4.2;2.2;;;;;;;18.57;61.58398;957.108;;;;
2019/06/06 13:41:58;;;;;;;5.1;2;;;;;;;19.09;60.29199;957.1467;;;;
2019/06/06 13:44:23;;;;;;;3.7;2.1;;;;;;;19.07;57.95898;957.0421;;;;
2019/06/06 13:46:47;;;;;;;5;2.3;;;;;;;18.44;60.61523;957.1524;;;;
2019/06/06 13:49:13;;;;;;;4.3;2.2;;;;;;;18.45;59.00684;957.0606;;;;
2019/06/06 13:51:47;;;;;;;5.1;2.3;;;;;;;18.25;60.49414;957.055;;;;
2019/06/06 13:54:12;;;;;;;2.8;2.5;;;;;;;18.08;59.90723;957.2211;;;;
2019/06/06 13:56:37;;;;;;;4.9;2.7;;;;;;;17.68;63.23145;957.1855;;;;
2019/06/06 13:59:07;;;;;;;3.1;2.8;;;;;;;17.36;63.20801;957.204;;;;
2019/06/06 14:01:33;;;;;;;4.6;2.3;;;;;;;17.33;65.14941;957.225;;;;
2019/06/06 14:03:57;;;;;;;4.3;2.4;;;;;;;17.33;64.03613;957.2559;;;;
2019/06/06 14:06:22;;;;;;;2.4;2.2;;;;;;;17.29;63.28125;957.3427;;;;
2019/06/06 14:08:49;;;;;;;3.1;2.4;;;;;;;17.06;64.30273;957.3391;;;;
2019/06/06 14:11:30;;;;;;;3.8;2.4;;;;;;;17.41;62.81738;957.3867;;;;
2019/06/06 14:13:55;;;;;;;3;2.7;;;;;;;17.05;63.18652;957.389;;;;
2019/06/06 14:16:20;;;;;;;6.1;2.4;;;;;;;17.36;62.62207;957.394;;;;
2019/06/06 14:18:46;;;;;;;4.6;2.5;;;;;;;17.5;63.45215;957.4168;;;;
2019/06/06 14:21:14;;;;;;;2.9;2.5;;;;;;;17.23;64.39746;957.4753;;;;
2019/06/06 14:23:46;;;;;;;4.2;2.6;;;;;;;17.03;64.69531;957.6146;;;;
2019/06/06 14:26:17;;;;;;;4.6;2.6;;;;;;;16.65;65.25879;957.7562;;;;
2019/06/06 14:28:41;;;;;;;2.7;2.5;;;;;;;16.64;65.00195;957.7096;;;;
2019/06/06 14:31:07;;;;;;;3.6;2.6;;;;;;;17.02;63.5918;957.6725;;;;
2019/06/06 14:33:38;;;;;;;3.6;2.6;;;;;;;16.58;66.23242;957.6917;;;;
2019/06/06 14:36:04;;;;;;;4.1;2.6;;;;;;;17.04;64.04102;957.7428;;;;
2019/06/06 14:38:28;;;;;;;4.1;2.3;;;;;;;16.64;65.24609;957.8176;;;;
2019/06/06 14:40:54;;;;;;;3.6;2.5;;;;;;;16.32;67.0459;957.7918;;;;
2019/06/06 14:43:19;;;;;;;3.2;2.4;;;;;;;16.7;66.04004;957.7799;;;;
2019/06/06 14:45:44;;;;;;;3.7;2.2;;;;;;;16.67;66.35059;957.8187;;;;
2019/06/06 14:48:10;;;;;;;4.5;2.6;;;;;;;16.56;68.52344;957.9533;;;;
2019/06/06 14:50:35;;;;;;;3.1;2.8;;;;;;;16.17;67.59668;957.9053;;;;
2019/06/06 14:53:00;;;;;;;5.8;3.2;;;;;;;16.31;66.98633;957.8703;;;;
2019/06/06 14:55:25;;;;;;;6.5;3.5;;;;;;;15.86;68.70508;957.9155;;;;
2019/06/06 14:57:51;;;;;;;5.1;3.4;;;;;;;15.93;68.69238;957.9023;;;;
2019/06/06 15:00:19;;;;;;;4.2;3.3;;;;;;;16.11;67.30762;957.9045;;;;
2019/06/06 15:02:44;;;;;;;5.1;2.8;;;;;;;15.92;67.79004;957.8954;;;;
2019/06/06 15:05:09;;;;;;;8.7;3.3;;;;;;;16.18;67.07227;957.9301;;;;
2019/06/06 15:07:34;;;;;;;7.8;5.2;;;;;;;15.96;67.52832;957.963;;;;
2019/06/06 15:09:59;;;;;;;6.8;3.5;;;;;;;15.84;67.70801;957.9233;;;;
2019/06/06 15:12:24;;;;;;;4.7;3.3;;;;;;;15.95;66.87402;957.8479;;;;